Time,TemperatureF,DewpointF,PressureIn,WindDirection,WindDirectionDegrees,WindSpeedMPH,WindSpeedGustMPH,Humidity,HourlyPrecipIn,Conditions,Clouds,dailyrainin,SoftwareType,DateUTC
2013-08-01 00:03:00,69.0,59.0,-100.00,North,-999,0.0,-999.0,71,0.00,,,0.00,,2013-08-01 04:03:00,
2013-08-01 00:13:00,69.0,59.0,-100.00,North,-999,0.0,-999.0,71,0.00,,,0.00,,2013-08-01 04:13:00,
2013-08-01 00:22:00,69.0,59.0,-100.00,North,-999,0.0,-999.0,71,0.00,,,0.00,,2013-08-01 04:22:00,
2013-08-01 00:33:00,69.0,59.0,-100.00,North,-999,0.0,-999.0,71,0.00,,,0.00,,2013-08-01 04:33:00,
2013-08-01 00:43:00,69.0,59.0,-100.00,North,-999,0.0,-999.0,71,0.00,,,0.00,,2013-08-01 04:43:00,
2013-08-01 01:03:00,68.0,60.0,-100.00,North,-999,-999.0,-999.0,74,-99.99,,,0.00,,2013-08-01 05:03:00,
2013-08-01 01:13:00,68.0,60.0,-100.00,North,-999,-999.0,-999.0,74,-99.99,,,0.00,,2013-08-01 05:13:00,
2013-08-01 01:23:00,68.0,60.0,-100.00,North,-999,-999.0,-999.0,74,-99.99,,,0.00,,2013-08-01 05:23:00,
2013-08-01 02:02:00,66.0,60.0,-100.00,North,-999,0.0,-999.0,81,-99.99,,,0.00,,2013-08-01 06:02:00,
2013-08-01 02:13:00,66.0,60.0,-100.00,North,-999,0.0,-999.0,81,-99.99,,,0.00,,2013-08-01 06:13:00,
2013-08-01 02:23:00,66.0,60.0,-100.00,North,-999,0.0,-999.0,81,-99.99,,,0.00,,2013-08-01 06:23:00,
2013-08-01 02:33:00,66.0,60.0,-100.00,North,-999,0.0,-999.0,81,-99.99,,,0.00,,2013-08-01 06:33:00,
2013-08-01 02:43:00,66.0,60.0,-100.00,North,-999,0.0,-999.0,81,-99.99,,,0.00,,2013-08-01 06:43:00,
2013-08-01 03:03:00,65.0,60.0,-100.00,North,-999,0.0,-999.0,84,0.00,,,-99.99,,2013-08-01 07:03:00,
2013-08-01 03:12:00,65.0,60.0,-100.00,North,-999,0.0,-999.0,84,0.00,,,-99.99,,2013-08-01 07:12:00,
2013-08-01 03:23:00,65.0,60.0,-100.00,North,-999,0.0,-999.0,84,0.00,,,-99.99,,2013-08-01 07:23:00,
2013-08-01 03:32:00,65.0,60.0,-100.00,North,-999,0.0,-999.0,84,0.00,,,-99.99,,2013-08-01 07:32:00,
2013-08-01 03:43:00,65.0,60.0,-100.00,North,-999,0.0,-999.0,84,0.00,,,-99.99,,2013-08-01 07:43:00,
2013-08-01 04:28:00,64.0,59.0,-100.00,North,-999,-999.0,-999.0,85,0.00,,,-99.99,,2013-08-01 08:28:00,
2013-08-01 10:45:00,77.0,59.0,-100.00,North,-999,0.0,-999.0,54,0.00,,,0.00,,2013-08-01 14:45:00,
2013-08-01 11:25:00,77.0,59.0,-100.00,North,-999,0.0,-999.0,54,0.00,,,0.00,,2013-08-01 15:25:00,
2013-08-01 11:40:00,77.0,59.0,-100.00,North,-999,0.0,-999.0,54,0.00,,,0.00,,2013-08-01 15:40:00,
2013-08-01 12:22:00,80.0,56.0,-100.00,North,-999,0.0,-999.0,44,0.00,,,-99.99,,2013-08-01 16:22:00,
2013-08-01 12:33:00,80.0,56.0,-100.00,North,-999,0.0,-999.0,44,0.00,,,-99.99,,2013-08-01 16:33:00,
2013-08-01 12:44:00,80.0,56.0,-100.00,North,-999,0.0,-999.0,44,0.00,,,-99.99,,2013-08-01 16:44:00,
2013-08-01 13:19:00,81.0,56.0,-100.00,North,-999,-999.0,-999.0,43,0.00,,,0.00,,2013-08-01 17:19:00,
2013-08-01 14:17:00,84.0,54.0,-100.00,North,-999,0.0,-999.0,36,0.00,,,0.00,,2013-08-01 18:17:00,
2013-08-01 14:45:00,82.0,58.0,-100.00,North,-999,-999.0,-999.0,44,-99.99,,,0.00,,2013-08-01 18:45:00,
2013-08-01 15:17:00,82.0,58.0,-100.00,North,-999,-999.0,-999.0,44,-99.99,,,0.00,,2013-08-01 19:17:00,
2013-08-01 15:25:00,82.0,58.0,-100.00,North,-999,-999.0,-999.0,44,-99.99,,,0.00,,2013-08-01 19:25:00,
2013-08-01 15:34:00,82.0,58.0,-100.00,North,-999,-999.0,-999.0,44,-99.99,,,0.00,,2013-08-01 19:34:00,
2013-08-01 15:43:00,82.0,58.0,-100.00,North,-999,-999.0,-999.0,44,-99.99,,,0.00,,2013-08-01 19:43:00,
2013-08-01 15:45:00,80.0,59.0,-100.00,North,-999,0.0,-999.0,48,0.00,,,0.00,,2013-08-01 19:45:00,
2013-08-01 16:17:00,80.0,59.0,-100.00,North,-999,0.0,-999.0,48,0.00,,,0.00,,2013-08-01 20:17:00,
2013-08-01 16:29:00,80.0,59.0,-100.00,North,-999,0.0,-999.0,48,0.00,,,0.00,,2013-08-01 20:29:00,
2013-08-01 17:04:00,74.0,65.0,-100.00,North,-999,0.0,-999.0,72,0.00,,,0.00,,2013-08-01 21:04:00,
2013-08-01 17:14:00,74.0,65.0,-100.00,North,-999,0.0,-999.0,72,0.00,,,0.00,,2013-08-01 21:14:00,
2013-08-01 17:35:00,74.0,65.0,-100.00,North,-999,0.0,-999.0,72,0.00,,,0.00,,2013-08-01 21:35:00,
2013-08-01 17:43:00,74.0,65.0,-100.00,North,-999,0.0,-999.0,72,0.00,,,0.00,,2013-08-01 21:43:00,
2013-08-01 17:45:00,70.0,64.0,-100.00,North,-999,-999.0,-999.0,80,0.01,,,0.01,,2013-08-01 21:45:00,
2013-08-01 18:12:00,70.0,64.0,-100.00,North,-999,-999.0,-999.0,80,0.01,,,0.01,,2013-08-01 22:12:00,
2013-08-01 18:18:00,70.0,64.0,-100.00,North,-999,-999.0,-999.0,80,0.01,,,0.01,,2013-08-01 22:18:00,
2013-08-01 18:35:00,70.0,64.0,-100.00,North,-999,-999.0,-999.0,80,0.01,,,0.01,,2013-08-01 22:35:00,
2013-08-01 18:45:00,69.0,65.0,-100.00,North,-999,0.0,-999.0,88,0.06,,,0.07,,2013-08-01 22:45:00,
2013-08-01 19:12:00,69.0,65.0,-100.00,North,-999,0.0,-999.0,88,0.06,,,0.07,,2013-08-01 23:12:00,
2013-08-01 19:18:00,69.0,65.0,-100.00,North,-999,0.0,-999.0,88,0.06,,,0.07,,2013-08-01 23:18:00,
2013-08-01 19:25:00,69.0,65.0,-100.00,North,-999,0.0,-999.0,88,0.06,,,0.07,,2013-08-01 23:25:00,
2013-08-01 19:33:00,69.0,65.0,-100.00,North,-999,0.0,-999.0,88,0.06,,,0.07,,2013-08-01 23:33:00,
2013-08-01 19:46:00,68.0,65.0,-100.00,North,-999,0.0,-999.0,90,0.02,,,0.09,,2013-08-01 23:46:00,
2013-08-01 20:09:00,68.0,65.0,-100.00,North,-999,0.0,-999.0,90,0.02,,,0.09,,2013-08-02 00:09:00,
2013-08-01 20:19:00,68.0,65.0,-100.00,North,-999,0.0,-999.0,90,0.02,,,0.09,,2013-08-02 00:19:00,
2013-08-01 20:30:00,68.0,65.0,-100.00,North,-999,0.0,-999.0,90,0.02,,,0.09,,2013-08-02 00:30:00,
2013-08-01 20:40:00,68.0,65.0,-100.00,North,-999,0.0,-999.0,90,0.02,,,0.09,,2013-08-02 00:40:00,
2013-08-01 20:45:00,68.0,64.0,-100.00,North,-999,-999.0,-999.0,88,0.00,,,0.09,,2013-08-02 00:45:00,
2013-08-01 21:07:00,68.0,64.0,-100.00,North,-999,-999.0,-999.0,88,0.00,,,0.09,,2013-08-02 01:07:00,
2013-08-01 21:18:00,68.0,64.0,-100.00,North,-999,-999.0,-999.0,88,0.00,,,0.09,,2013-08-02 01:18:00,
2013-08-01 21:30:00,68.0,64.0,-100.00,North,-999,-999.0,-999.0,88,0.00,,,0.09,,2013-08-02 01:30:00,
2013-08-01 21:41:00,68.0,64.0,-100.00,North,-999,-999.0,-999.0,88,0.00,,,0.09,,2013-08-02 01:41:00,
2013-08-01 21:45:00,67.0,63.0,-100.00,North,-999,0.0,-999.0,86,0.00,,,0.09,,2013-08-02 01:45:00,
2013-08-01 22:09:00,67.0,63.0,-100.00,North,-999,0.0,-999.0,86,0.00,,,0.09,,2013-08-02 02:09:00,
2013-08-01 22:18:00,67.0,63.0,-100.00,North,-999,0.0,-999.0,86,0.00,,,0.09,,2013-08-02 02:18:00,
2013-08-01 22:28:00,67.0,63.0,-100.00,North,-999,0.0,-999.0,86,0.00,,,0.09,,2013-08-02 02:28:00,
2013-08-01 22:45:00,65.0,62.0,-100.00,North,-999,-999.0,-999.0,89,0.06,,,0.15,,2013-08-02 02:45:00,
2013-08-01 23:11:00,65.0,62.0,-100.00,North,-999,-999.0,-999.0,89,0.06,,,0.15,,2013-08-02 03:11:00,
2013-08-01 23:23:00,65.0,62.0,-100.00,North,-999,-999.0,-999.0,89,0.06,,,0.15,,2013-08-02 03:23:00,
2013-08-01 23:39:00,65.0,62.0,-100.00,North,-999,-999.0,-999.0,89,0.06,,,0.15,,2013-08-02 03:39:00,